sensor_id;sensor_type;location;lat;lon;timestamp;P1;durP1;ratioP1;P2;durP2;ratioP2
22415;SDS011;12204;50.600;4.608;2023-03-01T00:03:32;10.02;;;4.30;;
22415;SDS011;12204;50.600;4.608;2023-03-01T00:08:36;10.55;;;4.65;;
22415;SDS011;12204;50.600;4.608;2023-03-01T00:13:42;9.60;;;4.38;;
22415;SDS011;12204;50.600;4.608;2023-03-01T00:18:46;9.80;;;4.38;;
22415;SDS011;12204;50.600;4.608;2023-03-01T00:23:50;9.13;;;4.53;;
22415;SDS011;12204;50.600;4.608;2023-03-01T00:28:56;11.35;;;4.30;;
22415;SDS011;12204;50.600;4.608;2023-03-01T00:34:01;10.68;;;4.95;;
22415;SDS011;12204;50.600;4.608;2023-03-01T00:39:09;11.30;;;4.63;;
22415;SDS011;12204;50.600;4.608;2023-03-01T00:44:19;9.43;;;4.20;;
22415;SDS011;12204;50.600;4.608;2023-03-01T00:49:23;10.90;;;4.50;;
22415;SDS011;12204;50.600;4.608;2023-03-01T00:54:30;8.90;;;4.32;;
22415;SDS011;12204;50.600;4.608;2023-03-01T00:59:35;9.82;;;4.43;;
22415;SDS011;12204;50.600;4.608;2023-03-01T01:04:38;11.00;;;4.45;;
22415;SDS011;12204;50.600;4.608;2023-03-01T01:09:42;9.77;;;4.47;;
22415;SDS011;12204;50.600;4.608;2023-03-01T01:14:47;10.57;;;4.47;;
22415;SDS011;12204;50.600;4.608;2023-03-01T01:19:50;9.93;;;4.68;;
22415;SDS011;12204;50.600;4.608;2023-03-01T01:24:54;9.48;;;4.63;;
22415;SDS011;12204;50.600;4.608;2023-03-01T01:30:00;9.85;;;4.20;;
22415;SDS011;12204;50.600;4.608;2023-03-01T01:35:03;11.70;;;4.97;;
22415;SDS011;12204;50.600;4.608;2023-03-01T01:40:08;9.73;;;4.78;;
22415;SDS011;12204;50.600;4.608;2023-03-01T01:45:32;9.85;;;4.53;;
22415;SDS011;12204;50.600;4.608;2023-03-01T01:50:39;9.63;;;4.50;;
22415;SDS011;12204;50.600;4.608;2023-03-01T01:55:47;11.20;;;4.77;;
22415;SDS011;12204;50.600;4.608;2023-03-01T02:01:01;9.90;;;4.72;;
22415;SDS011;12204;50.600;4.608;2023-03-01T02:06:06;10.55;;;4.70;;
22415;SDS011;12204;50.600;4.608;2023-03-01T02:11:18;10.30;;;4.50;;
22415;SDS011;12204;50.600;4.608;2023-03-01T02:16:24;9.52;;;4.43;;
22415;SDS011;12204;50.600;4.608;2023-03-01T02:21:34;10.37;;;4.63;;
22415;SDS011;12204;50.600;4.608;2023-03-01T02:26:50;11.27;;;4.55;;
22415;SDS011;12204;50.600;4.608;2023-03-01T02:31:59;10.10;;;4.85;;
22415;SDS011;12204;50.600;4.608;2023-03-01T02:37:07;11.07;;;4.45;;
22415;SDS011;12204;50.600;4.608;2023-03-01T02:42:18;9.23;;;4.20;;
22415;SDS011;12204;50.600;4.608;2023-03-01T02:47:31;10.15;;;4.80;;
22415;SDS011;12204;50.600;4.608;2023-03-01T02:52:37;10.05;;;4.25;;
22415;SDS011;12204;50.600;4.608;2023-03-01T02:57:50;9.75;;;4.40;;
22415;SDS011;12204;50.600;4.608;2023-03-01T03:02:55;10.63;;;4.78;;
22415;SDS011;12204;50.600;4.608;2023-03-01T03:08:00;10.68;;;4.35;;
22415;SDS011;12204;50.600;4.608;2023-03-01T03:13:10;10.45;;;4.85;;
22415;SDS011;12204;50.600;4.608;2023-03-01T03:18:18;10.20;;;4.33;;
22415;SDS011;12204;50.600;4.608;2023-03-01T03:23:21;8.88;;;4.22;;
22415;SDS011;12204;50.600;4.608;2023-03-01T03:28:25;9.50;;;4.15;;
22415;SDS011;12204;50.600;4.608;2023-03-01T03:33:30;9.82;;;4.60;;
22415;SDS011;12204;50.600;4.608;2023-03-01T03:38:34;8.88;;;4.45;;
22415;SDS011;12204;50.600;4.608;2023-03-01T03:43:38;11.57;;;4.38;;
22415;SDS011;12204;50.600;4.608;2023-03-01T03:48:45;9.60;;;4.55;;
22415;SDS011;12204;50.600;4.608;2023-03-01T03:53:48;9.57;;;4.25;;
22415;SDS011;12204;50.600;4.608;2023-03-01T03:58:52;9.57;;;4.43;;
22415;SDS011;12204;50.600;4.608;2023-03-01T04:03:57;9.20;;;4.20;;
22415;SDS011;12204;50.600;4.608;2023-03-01T04:09:05;9.95;;;4.32;;
22415;SDS011;12204;50.600;4.608;2023-03-01T04:14:09;8.73;;;4.13;;
22415;SDS011;12204;50.600;4.608;2023-03-01T04:19:14;10.27;;;4.60;;
22415;SDS011;12204;50.600;4.608;2023-03-01T04:24:17;9.13;;;4.20;;
22415;SDS011;12204;50.600;4.608;2023-03-01T04:29:21;8.88;;;4.22;;
22415;SDS011;12204;50.600;4.608;2023-03-01T04:34:26;8.27;;;4.07;;
22415;SDS011;12204;50.600;4.608;2023-03-01T04:39:30;9.23;;;4.10;;
22415;SDS011;12204;50.600;4.608;2023-03-01T04:44:34;9.65;;;4.15;;
22415;SDS011;12204;50.600;4.608;2023-03-01T04:49:39;9.45;;;4.20;;
22415;SDS011;12204;50.600;4.608;2023-03-01T04:54:42;8.23;;;4.07;;
22415;SDS011;12204;50.600;4.608;2023-03-01T04:59:45;9.55;;;4.18;;
22415;SDS011;12204;50.600;4.608;2023-03-01T05:04:50;9.40;;;4.05;;
22415;SDS011;12204;50.600;4.608;2023-03-01T05:09:58;8.02;;;3.95;;
22415;SDS011;12204;50.600;4.608;2023-03-01T05:15:02;9.20;;;4.10;;
22415;SDS011;12204;50.600;4.608;2023-03-01T05:20:10;8.77;;;3.75;;
22415;SDS011;12204;50.600;4.608;2023-03-01T05:25:14;7.97;;;3.75;;
22415;SDS011;12204;50.600;4.608;2023-03-01T05:30:18;9.38;;;3.97;;
22415;SDS011;12204;50.600;4.608;2023-03-01T05:35:24;9.57;;;4.05;;
22415;SDS011;12204;50.600;4.608;2023-03-01T05:40:27;8.73;;;3.95;;
22415;SDS011;12204;50.600;4.608;2023-03-01T05:45:31;8.13;;;3.63;;
22415;SDS011;12204;50.600;4.608;2023-03-01T05:50:37;8.43;;;3.70;;
22415;SDS011;12204;50.600;4.608;2023-03-01T05:55:43;9.02;;;3.80;;
22415;SDS011;12204;50.600;4.608;2023-03-01T06:00:48;9.32;;;4.18;;
22415;SDS011;12204;50.600;4.608;2023-03-01T06:05:56;8.05;;;3.53;;
22415;SDS011;12204;50.600;4.608;2023-03-01T06:11:00;7.30;;;3.70;;
22415;SDS011;12204;50.600;4.608;2023-03-01T06:16:04;7.57;;;3.60;;
22415;SDS011;12204;50.600;4.608;2023-03-01T06:21:10;8.23;;;3.83;;
22415;SDS011;12204;50.600;4.608;2023-03-01T06:26:14;8.18;;;3.75;;
22415;SDS011;12204;50.600;4.608;2023-03-01T06:31:17;8.02;;;3.65;;
22415;SDS011;12204;50.600;4.608;2023-03-01T06:36:22;9.60;;;3.63;;
22415;SDS011;12204;50.600;4.608;2023-03-01T06:41:25;8.20;;;3.83;;
22415;SDS011;12204;50.600;4.608;2023-03-01T06:46:29;7.55;;;3.67;;
22415;SDS011;12204;50.600;4.608;2023-03-01T06:51:34;8.38;;;3.80;;
22415;SDS011;12204;50.600;4.608;2023-03-01T06:56:39;7.68;;;3.65;;
22415;SDS011;12204;50.600;4.608;2023-03-01T07:01:42;7.03;;;3.30;;
22415;SDS011;12204;50.600;4.608;2023-03-01T07:06:47;7.82;;;3.45;;
22415;SDS011;12204;50.600;4.608;2023-03-01T07:11:56;8.15;;;3.63;;
22415;SDS011;12204;50.600;4.608;2023-03-01T07:17:00;7.10;;;3.40;;
22415;SDS011;12204;50.600;4.608;2023-03-01T07:22:05;8.05;;;3.42;;
22415;SDS011;12204;50.600;4.608;2023-03-01T07:27:09;6.97;;;3.40;;
22415;SDS011;12204;50.600;4.608;2023-03-01T07:32:12;7.15;;;3.00;;
22415;SDS011;12204;50.600;4.608;2023-03-01T07:37:17;7.43;;;3.30;;
22415;SDS011;12204;50.600;4.608;2023-03-01T07:42:21;7.20;;;3.28;;
22415;SDS011;12204;50.600;4.608;2023-03-01T07:47:24;7.63;;;3.60;;
22415;SDS011;12204;50.600;4.608;2023-03-01T07:52:29;8.85;;;3.33;;
22415;SDS011;12204;50.600;4.608;2023-03-01T07:57:33;7.70;;;3.17;;
22415;SDS011;12204;50.600;4.608;2023-03-01T08:02:36;6.95;;;2.90;;
22415;SDS011;12204;50.600;4.608;2023-03-01T08:07:43;7.05;;;3.20;;
22415;SDS011;12204;50.600;4.608;2023-03-01T08:12:46;8.30;;;3.50;;
22415;SDS011;12204;50.600;4.608;2023-03-01T08:17:50;7.10;;;3.40;;
22415;SDS011;12204;50.600;4.608;2023-03-01T08:22:54;7.10;;;3.30;;
22415;SDS011;12204;50.600;4.608;2023-03-01T08:28:00;6.78;;;3.28;;
22415;SDS011;12204;50.600;4.608;2023-03-01T08:33:04;8.15;;;2.95;;
22415;SDS011;12204;50.600;4.608;2023-03-01T08:38:08;6.97;;;3.20;;
22415;SDS011;12204;50.600;4.608;2023-03-01T08:43:12;6.38;;;2.92;;
22415;SDS011;12204;50.600;4.608;2023-03-01T08:48:15;8.65;;;3.45;;
22415;SDS011;12204;50.600;4.608;2023-03-01T08:53:20;6.05;;;2.90;;
22415;SDS011;12204;50.600;4.608;2023-03-01T08:58:23;6.65;;;3.10;;
22415;SDS011;12204;50.600;4.608;2023-03-01T09:03:27;7.68;;;3.38;;
22415;SDS011;12204;50.600;4.608;2023-03-01T09:08:33;7.93;;;3.30;;
22415;SDS011;12204;50.600;4.608;2023-03-01T09:13:38;8.23;;;3.05;;
22415;SDS011;12204;50.600;4.608;2023-03-01T09:18:44;7.15;;;3.10;;
22415;SDS011;12204;50.600;4.608;2023-03-01T09:23:55;6.05;;;2.70;;
22415;SDS011;12204;50.600;4.608;2023-03-01T09:29:00;6.87;;;3.00;;
22415;SDS011;12204;50.600;4.608;2023-03-01T09:34:03;7.15;;;2.90;;
22415;SDS011;12204;50.600;4.608;2023-03-01T09:39:09;7.45;;;2.80;;
22415;SDS011;12204;50.600;4.608;2023-03-01T09:44:16;6.90;;;3.03;;
22415;SDS011;12204;50.600;4.608;2023-03-01T09:49:34;6.57;;;3.17;;
22415;SDS011;12204;50.600;4.608;2023-03-01T09:54:44;6.40;;;2.70;;
22415;SDS011;12204;50.600;4.608;2023-03-01T09:59:55;6.35;;;2.90;;
22415;SDS011;12204;50.600;4.608;2023-03-01T10:05:26;6.72;;;3.00;;
22415;SDS011;12204;50.600;4.608;2023-03-01T10:11:03;5.63;;;2.67;;
22415;SDS011;12204;50.600;4.608;2023-03-01T10:16:23;6.07;;;2.65;;
22415;SDS011;12204;50.600;4.608;2023-03-01T10:21:44;6.25;;;2.70;;
22415;SDS011;12204;50.600;4.608;2023-03-01T10:26:53;6.22;;;2.90;;
22415;SDS011;12204;50.600;4.608;2023-03-01T10:31:59;6.15;;;2.83;;
22415;SDS011;12204;50.600;4.608;2023-03-01T10:37:08;6.18;;;2.67;;
22415;SDS011;12204;50.600;4.608;2023-03-01T10:42:21;6.28;;;2.60;;
22415;SDS011;12204;50.600;4.608;2023-03-01T10:47:31;7.72;;;2.90;;
22415;SDS011;12204;50.600;4.608;2023-03-01T10:52:35;5.55;;;2.53;;
22415;SDS011;12204;50.600;4.608;2023-03-01T10:57:44;7.40;;;2.67;;
22415;SDS011;12204;50.600;4.608;2023-03-01T11:02:48;5.63;;;2.72;;
22415;SDS011;12204;50.600;4.608;2023-03-01T11:08:05;6.60;;;2.70;;
22415;SDS011;12204;50.600;4.608;2023-03-01T11:13:14;6.30;;;2.50;;
22415;SDS011;12204;50.600;4.608;2023-03-01T11:18:20;6.35;;;2.60;;
22415;SDS011;12204;50.600;4.608;2023-03-01T11:23:45;6.65;;;2.78;;
22415;SDS011;12204;50.600;4.608;2023-03-01T11:28:51;6.30;;;2.80;;
22415;SDS011;12204;50.600;4.608;2023-03-01T11:33:59;6.32;;;2.60;;
22415;SDS011;12204;50.600;4.608;2023-03-01T11:39:16;6.80;;;2.83;;
22415;SDS011;12204;50.600;4.608;2023-03-01T11:44:31;6.30;;;2.50;;
22415;SDS011;12204;50.600;4.608;2023-03-01T11:49:48;5.90;;;2.50;;
22415;SDS011;12204;50.600;4.608;2023-03-01T11:55:19;5.78;;;2.55;;
22415;SDS011;12204;50.600;4.608;2023-03-01T12:06:25;6.80;;;2.47;;
22415;SDS011;12204;50.600;4.608;2023-03-01T12:11:49;6.93;;;2.40;;
22415;SDS011;12204;50.600;4.608;2023-03-01T12:17:18;5.85;;;2.60;;
22415;SDS011;12204;50.600;4.608;2023-03-01T12:23:05;6.07;;;2.50;;
22415;SDS011;12204;50.600;4.608;2023-03-01T12:28:50;5.87;;;2.67;;
22415;SDS011;12204;50.600;4.608;2023-03-01T12:34:27;6.07;;;2.67;;
22415;SDS011;12204;50.600;4.608;2023-03-01T12:39:57;5.82;;;2.50;;
22415;SDS011;12204;50.600;4.608;2023-03-01T12:45:34;5.32;;;2.35;;
22415;SDS011;12204;50.600;4.608;2023-03-01T12:50:57;5.85;;;2.38;;
22415;SDS011;12204;50.600;4.608;2023-03-01T12:56:08;5.85;;;2.15;;
22415;SDS011;12204;50.600;4.608;2023-03-01T13:01:19;5.60;;;2.42;;
22415;SDS011;12204;50.600;4.608;2023-03-01T13:06:46;5.43;;;2.42;;
22415;SDS011;12204;50.600;4.608;2023-03-01T13:12:01;6.40;;;2.38;;
22415;SDS011;12204;50.600;4.608;2023-03-01T13:17:32;7.70;;;2.65;;
22415;SDS011;12204;50.600;4.608;2023-03-01T13:22:47;7.45;;;2.42;;
22415;SDS011;12204;50.600;4.608;2023-03-01T13:33:44;5.80;;;2.50;;
22415;SDS011;12204;50.600;4.608;2023-03-01T13:38:56;5.38;;;2.30;;
22415;SDS011;12204;50.600;4.608;2023-03-01T13:44:01;4.70;;;2.20;;
22415;SDS011;12204;50.600;4.608;2023-03-01T13:49:16;5.60;;;2.22;;
22415;SDS011;12204;50.600;4.608;2023-03-01T13:54:25;6.32;;;2.70;;
22415;SDS011;12204;50.600;4.608;2023-03-01T13:59:33;5.95;;;2.35;;
22415;SDS011;12204;50.600;4.608;2023-03-01T14:04:55;5.57;;;2.40;;
22415;SDS011;12204;50.600;4.608;2023-03-01T14:10:02;5.18;;;2.17;;
22415;SDS011;12204;50.600;4.608;2023-03-01T14:15:09;5.20;;;2.25;;
22415;SDS011;12204;50.600;4.608;2023-03-01T14:20:23;6.05;;;2.47;;
22415;SDS011;12204;50.600;4.608;2023-03-01T14:25:31;5.20;;;2.15;;
22415;SDS011;12204;50.600;4.608;2023-03-01T14:30:38;5.10;;;2.22;;
22415;SDS011;12204;50.600;4.608;2023-03-01T14:35:51;5.87;;;2.20;;
22415;SDS011;12204;50.600;4.608;2023-03-01T14:41:02;5.57;;;2.30;;
22415;SDS011;12204;50.600;4.608;2023-03-01T14:46:16;6.32;;;2.40;;
22415;SDS011;12204;50.600;4.608;2023-03-01T14:51:22;6.28;;;2.65;;
22415;SDS011;12204;50.600;4.608;2023-03-01T14:56:27;5.47;;;2.40;;
22415;SDS011;12204;50.600;4.608;2023-03-01T15:01:47;4.93;;;2.05;;
22415;SDS011;12204;50.600;4.608;2023-03-01T15:06:52;5.40;;;2.20;;
22415;SDS011;12204;50.600;4.608;2023-03-01T15:11:59;5.28;;;2.17;;
22415;SDS011;12204;50.600;4.608;2023-03-01T15:17:02;5.03;;;2.15;;
22415;SDS011;12204;50.600;4.608;2023-03-01T15:22:12;5.40;;;2.20;;
22415;SDS011;12204;50.600;4.608;2023-03-01T15:27:20;5.22;;;2.20;;
22415;SDS011;12204;50.600;4.608;2023-03-01T15:32:27;4.63;;;2.05;;
22415;SDS011;12204;50.600;4.608;2023-03-01T15:37:36;5.78;;;2.45;;
22415;SDS011;12204;50.600;4.608;2023-03-01T15:42:50;4.80;;;2.30;;
22415;SDS011;12204;50.600;4.608;2023-03-01T15:47:55;5.47;;;2.35;;
22415;SDS011;12204;50.600;4.608;2023-03-01T15:58:12;6.28;;;2.35;;
22415;SDS011;12204;50.600;4.608;2023-03-01T16:03:18;4.93;;;2.17;;
22415;SDS011;12204;50.600;4.608;2023-03-01T16:08:22;5.78;;;2.30;;
22415;SDS011;12204;50.600;4.608;2023-03-01T16:13:27;5.72;;;2.30;;
22415;SDS011;12204;50.600;4.608;2023-03-01T16:18:30;5.18;;;2.30;;
22415;SDS011;12204;50.600;4.608;2023-03-01T16:23:34;5.78;;;2.40;;
22415;SDS011;12204;50.600;4.608;2023-03-01T16:28:39;6.78;;;2.60;;
22415;SDS011;12204;50.600;4.608;2023-03-01T16:33:44;6.72;;;2.47;;
22415;SDS011;12204;50.600;4.608;2023-03-01T16:38:51;5.28;;;2.42;;
22415;SDS011;12204;50.600;4.608;2023-03-01T16:43:58;6.78;;;2.63;;
22415;SDS011;12204;50.600;4.608;2023-03-01T16:49:02;6.30;;;2.50;;
22415;SDS011;12204;50.600;4.608;2023-03-01T16:54:05;6.43;;;2.67;;
22415;SDS011;12204;50.600;4.608;2023-03-01T16:59:10;5.15;;;2.40;;
22415;SDS011;12204;50.600;4.608;2023-03-01T17:04:13;6.82;;;2.72;;
22415;SDS011;12204;50.600;4.608;2023-03-01T17:09:19;5.45;;;2.42;;
22415;SDS011;12204;50.600;4.608;2023-03-01T17:14:24;6.50;;;2.60;;
22415;SDS011;12204;50.600;4.608;2023-03-01T17:19:28;6.18;;;2.55;;
22415;SDS011;12204;50.600;4.608;2023-03-01T17:24:33;6.38;;;2.50;;
22415;SDS011;12204;50.600;4.608;2023-03-01T17:29:38;4.72;;;2.33;;
22415;SDS011;12204;50.600;4.608;2023-03-01T17:34:42;6.45;;;2.60;;
22415;SDS011;12204;50.600;4.608;2023-03-01T17:39:49;5.35;;;2.25;;
22415;SDS011;12204;50.600;4.608;2023-03-01T17:44:54;7.22;;;2.47;;
22415;SDS011;12204;50.600;4.608;2023-03-01T17:49:58;5.80;;;2.70;;
22415;SDS011;12204;50.600;4.608;2023-03-01T17:55:01;7.13;;;2.58;;
22415;SDS011;12204;50.600;4.608;2023-03-01T18:00:08;7.47;;;2.63;;
22415;SDS011;12204;50.600;4.608;2023-03-01T18:05:15;6.68;;;2.60;;
22415;SDS011;12204;50.600;4.608;2023-03-01T18:10:19;5.88;;;2.63;;
22415;SDS011;12204;50.600;4.608;2023-03-01T18:15:24;6.00;;;2.60;;
22415;SDS011;12204;50.600;4.608;2023-03-01T18:20:27;5.78;;;2.50;;
22415;SDS011;12204;50.600;4.608;2023-03-01T18:25:33;6.05;;;2.38;;
22415;SDS011;12204;50.600;4.608;2023-03-01T18:30:37;6.32;;;2.50;;
22415;SDS011;12204;50.600;4.608;2023-03-01T18:35:41;5.70;;;2.40;;
22415;SDS011;12204;50.600;4.608;2023-03-01T18:40:44;6.70;;;2.30;;
22415;SDS011;12204;50.600;4.608;2023-03-01T18:45:54;5.97;;;2.50;;
22415;SDS011;12204;50.600;4.608;2023-03-01T18:51:05;6.53;;;2.55;;
22415;SDS011;12204;50.600;4.608;2023-03-01T18:56:14;7.32;;;2.72;;
22415;SDS011;12204;50.600;4.608;2023-03-01T19:01:20;6.15;;;2.55;;
22415;SDS011;12204;50.600;4.608;2023-03-01T19:06:27;6.45;;;2.60;;
22415;SDS011;12204;50.600;4.608;2023-03-01T19:11:34;6.13;;;2.65;;
22415;SDS011;12204;50.600;4.608;2023-03-01T19:16:40;8.20;;;3.08;;
22415;SDS011;12204;50.600;4.608;2023-03-01T19:21:43;6.45;;;2.70;;
22415;SDS011;12204;50.600;4.608;2023-03-01T19:27:03;7.00;;;2.65;;
22415;SDS011;12204;50.600;4.608;2023-03-01T19:32:08;8.02;;;2.70;;
22415;SDS011;12204;50.600;4.608;2023-03-01T19:37:11;7.63;;;2.80;;
22415;SDS011;12204;50.600;4.608;2023-03-01T19:42:15;7.45;;;2.88;;
22415;SDS011;12204;50.600;4.608;2023-03-01T19:47:20;7.30;;;2.80;;
22415;SDS011;12204;50.600;4.608;2023-03-01T19:52:23;7.05;;;2.83;;
22415;SDS011;12204;50.600;4.608;2023-03-01T19:57:27;8.77;;;2.90;;
22415;SDS011;12204;50.600;4.608;2023-03-01T20:02:32;6.93;;;3.13;;
22415;SDS011;12204;50.600;4.608;2023-03-01T20:07:35;9.07;;;3.22;;
22415;SDS011;12204;50.600;4.608;2023-03-01T20:12:39;8.40;;;3.10;;
22415;SDS011;12204;50.600;4.608;2023-03-01T20:17:43;9.80;;;3.50;;
22415;SDS011;12204;50.600;4.608;2023-03-01T20:22:47;8.73;;;3.40;;
22415;SDS011;12204;50.600;4.608;2023-03-01T20:27:50;9.23;;;3.35;;
22415;SDS011;12204;50.600;4.608;2023-03-01T20:32:55;8.32;;;3.78;;
22415;SDS011;12204;50.600;4.608;2023-03-01T20:37:59;8.70;;;3.75;;
22415;SDS011;12204;50.600;4.608;2023-03-01T20:43:04;12.60;;;4.05;;
22415;SDS011;12204;50.600;4.608;2023-03-01T20:48:09;8.68;;;3.70;;
22415;SDS011;12204;50.600;4.608;2023-03-01T20:53:12;10.45;;;4.07;;
22415;SDS011;12204;50.600;4.608;2023-03-01T20:58:16;8.63;;;3.90;;
22415;SDS011;12204;50.600;4.608;2023-03-01T21:03:21;9.68;;;4.38;;
22415;SDS011;12204;50.600;4.608;2023-03-01T21:08:24;9.48;;;4.35;;
22415;SDS011;12204;50.600;4.608;2023-03-01T21:13:29;11.82;;;4.60;;
22415;SDS011;12204;50.600;4.608;2023-03-01T21:18:36;12.30;;;4.95;;
22415;SDS011;12204;50.600;4.608;2023-03-01T21:23:40;10.75;;;4.90;;
22415;SDS011;12204;50.600;4.608;2023-03-01T21:28:45;13.43;;;4.72;;
22415;SDS011;12204;50.600;4.608;2023-03-01T21:33:53;12.85;;;4.72;;
22415;SDS011;12204;50.600;4.608;2023-03-01T21:44:03;11.40;;;5.10;;
22415;SDS011;12204;50.600;4.608;2023-03-01T21:49:09;14.02;;;5.32;;
22415;SDS011;12204;50.600;4.608;2023-03-01T21:54:14;13.50;;;5.68;;
22415;SDS011;12204;50.600;4.608;2023-03-01T21:59:20;12.50;;;5.55;;
22415;SDS011;12204;50.600;4.608;2023-03-01T22:04:26;11.15;;;5.25;;
22415;SDS011;12204;50.600;4.608;2023-03-01T22:09:30;14.00;;;5.53;;
22415;SDS011;12204;50.600;4.608;2023-03-01T22:14:35;12.05;;;5.43;;
22415;SDS011;12204;50.600;4.608;2023-03-01T22:19:40;12.27;;;5.43;;
22415;SDS011;12204;50.600;4.608;2023-03-01T22:24:43;12.38;;;5.40;;
22415;SDS011;12204;50.600;4.608;2023-03-01T22:29:46;13.48;;;6.20;;
22415;SDS011;12204;50.600;4.608;2023-03-01T22:34:51;12.77;;;5.85;;
22415;SDS011;12204;50.600;4.608;2023-03-01T22:39:55;14.60;;;6.30;;
22415;SDS011;12204;50.600;4.608;2023-03-01T22:44:58;13.35;;;6.00;;
22415;SDS011;12204;50.600;4.608;2023-03-01T22:50:04;12.75;;;6.32;;
22415;SDS011;12204;50.600;4.608;2023-03-01T22:55:10;12.17;;;5.80;;
22415;SDS011;12204;50.600;4.608;2023-03-01T23:00:14;14.18;;;6.38;;
22415;SDS011;12204;50.600;4.608;2023-03-01T23:05:20;13.65;;;6.40;;
22415;SDS011;12204;50.600;4.608;2023-03-01T23:10:23;14.68;;;7.00;;
22415;SDS011;12204;50.600;4.608;2023-03-01T23:15:27;15.45;;;6.53;;
22415;SDS011;12204;50.600;4.608;2023-03-01T23:20:35;15.40;;;6.68;;
22415;SDS011;12204;50.600;4.608;2023-03-01T23:25:38;14.85;;;6.88;;
22415;SDS011;12204;50.600;4.608;2023-03-01T23:30:42;14.73;;;6.18;;
22415;SDS011;12204;50.600;4.608;2023-03-01T23:35:57;14.32;;;6.53;;
22415;SDS011;12204;50.600;4.608;2023-03-01T23:41:03;14.40;;;6.80;;
22415;SDS011;12204;50.600;4.608;2023-03-01T23:46:10;14.30;;;6.70;;
22415;SDS011;12204;50.600;4.608;2023-03-01T23:51:16;13.00;;;6.35;;
22415;SDS011;12204;50.600;4.608;2023-03-01T23:56:21;13.23;;;6.72;;
